| time (UTC) | temp C | wind direction | speed KPH | gust KPH | rain 1hr cm | rain 24hr cm | rain mn cm | humidity % | barometer mb |
| 20260508200027 | 22 | 48 | 3.2 | 11.3 | 0.00 | 0.00 | 0.00 | 39 | 1005.7 |
| 20260508194514 | 23 | 337 | 1.6 | 6.4 | 0.00 | 0.00 | 0.00 | 39 | 1005.9 |
| 20260508193101 | 23 | 335 | 3.2 | 14.5 | 0.00 | 0.00 | 0.00 | 40 | 1006.0 |
| 20260508191548 | 23 | 274 | 0.0 | 4.8 | 0.00 | 0.00 | 0.00 | 39 | 1006.3 |
| 20260508190030 | 22 | 269 | 1.6 | 11.3 | 0.00 | 0.00 | 0.00 | 42 | 1006.5 |
| 20260508184530 | 23 | 101 | 6.4 | 16.1 | 0.00 | 0.00 | 0.00 | 40 | 1006.8 |
| 20260508183015 | 23 | 224 | 1.6 | 9.7 | 0.00 | 0.00 | 0.00 | 40 | 1007.0 |
| 20260508181514 | 23 | 200 | 3.2 | 8.0 | 0.00 | 0.00 | 0.00 | 40 | 1007.2 |
| 20260508180010 | 22 | 122 | 0.0 | 9.7 | 0.00 | 0.00 | 0.00 | 44 | 1007.5 |
| 20260508174508 | 22 | 276 | 3.2 | 8.0 | 0.00 | 0.00 | 0.00 | 42 | 1007.8 |
| 20260508173005 | 22 | 57 | 1.6 | 9.7 | 0.00 | 0.00 | 0.00 | 45 | 1008.1 |
| 20260508171504 | 22 | 270 | 1.6 | 6.4 | 0.00 | 0.00 | 0.00 | 42 | 1008.3 |
| 20260508170101 | 22 | 174 | 0.0 | 9.7 | 0.00 | 0.00 | 0.00 | 46 | 1008.6 |
| 20260508164558 | 22 | 271 | 1.6 | 16.1 | 0.00 | 0.00 | 0.00 | 41 | 1008.9 |
| 20260508163047 | 21 | 276 | 0.0 | 6.4 | 0.00 | 0.00 | 0.00 | 45 | 1009.1 |
| 20260508161541 | 21 | 291 | 1.6 | 8.0 | 0.00 | 0.00 | 0.00 | 45 | 1009.3 |
| 20260508160040 | 20 | 252 | 1.6 | 9.7 | 0.00 | 0.00 | 0.00 | 52 | 1009.5 |
| 20260508154535 | 20 | 250 | 1.6 | 9.7 | 0.00 | 0.00 | 0.00 | 49 | 1009.8 |
| 20260508153033 | 20 | 96 | 0.0 | 14.5 | 0.00 | 0.00 | 0.00 | 51 | 1010.0 |
| 20260508151538 | 20 | 284 | 3.2 | 14.5 | 0.00 | 0.00 | 0.00 | 47 | 1010.1 |
| 20260508150038 | 19 | 263 | 0.0 | 8.0 | 0.00 | 0.00 | 0.00 | 49 | 1010.3 |
| 20260508144540 | 19 | 79 | 0.0 | 6.4 | 0.00 | 0.00 | 0.00 | 50 | 1010.4 |
| 20260508143025 | 18 | 70 | 1.6 | 6.4 | 0.00 | 0.00 | 0.00 | 50 | 1010.5 |
| 20260508141520 | 18 | 65 | 1.6 | 8.0 | 0.00 | 0.00 | 0.00 | 50 | 1010.6 |
| 20260508140007 | 17 | 11 | 0.0 | 4.8 | 0.00 | 0.00 | 0.00 | 55 | 1010.7 |
| 20260508134504 | 16 | 166 | 0.0 | 3.2 | 0.00 | 0.00 | 0.00 | 56 | 1010.7 |
| 20260508133100 | 15 | 278 | 0.0 | 6.4 | 0.00 | 0.00 | 0.00 | 58 | 1010.7 |
| 20260508131600 | 15 | 240 | 0.0 | 6.4 | 0.00 | 0.00 | 0.00 | 62 | 1010.7 |
| 20260508130052 | 13 | 250 | 0.0 | 6.4 | 0.00 | 0.00 | 0.00 | 63 | 1010.8 |
| 20260508124548 | 12 | 309 | 0.0 | 6.4 | 0.00 | 0.00 | 0.00 | 71 | 1010.8 |
| 20260508123033 | 10 | 56 | 0.0 | 3.2 | 0.00 | 0.00 | 0.00 | 76 | 1010.7 |
| 20260508121527 | 8 | 70 | 0.0 | 1.6 | 0.00 | 0.00 | 0.00 | 84 | 1010.7 |
| 20260508120023 | 7 | 31 | 0.0 | 1.6 | 0.00 | 0.00 | 0.00 | 84 | 1010.6 |
| 20260508114530 | 6 | 257 | 0.0 | 0.0 | 0.00 | 0.00 | 0.00 | 86 | 1010.5 |
| 20260508113018 | 6 | 77 | 0.0 | 4.8 | 0.00 | 0.00 | 0.00 | 87 | 1010.4 |
| 20260508111513 | 5 | 131 | 0.0 | 4.8 | 0.00 | 0.00 | 0.00 | 89 | 1010.4 |
| 20260508110008 | 5 | 41 | 0.0 | 1.6 | 0.00 | 0.00 | 0.00 | 90 | 1010.2 |
| 20260508104507 | 4 | 11 | 0.0 | 1.6 | 0.00 | 0.00 | 0.00 | 90 | 1010.2 |
| 20260508103108 | 3 | 33 | 0.0 | 1.6 | 0.00 | 0.00 | 0.00 | 91 | 1010.1 |
| 20260508101551 | 3 | 167 | 0.0 | 0.0 | 0.00 | 0.00 | 0.00 | 91 | 1010.0 |
| 20260508100048 | 3 | 167 | 0.0 | 0.0 | 0.00 | 0.00 | 0.00 | 91 | 1010.0 |
| 20260508094538 | 3 | 77 | 0.0 | 1.6 | 0.00 | 0.00 | 0.00 | 92 | 1010.0 |
| 20260508093038 | 3 | 94 | 0.0 | 0.0 | 0.00 | 0.00 | 0.00 | 92 | 1010.1 |
| 20260508091536 | 3 | 94 | 0.0 | 0.0 | 0.00 | 0.00 | 0.00 | 92 | 1010.0 |
| 20260508090044 | 3 | 94 | 0.0 | 0.0 | 0.00 | 0.00 | 0.00 | 92 | 1009.9 |
| 20260508084534 | 3 | 94 | 0.0 | 0.0 | 0.00 | 0.00 | 0.00 | 92 | 1009.8 |
| 20260508083038 | 3 | 95 | 0.0 | 0.0 | 0.00 | 0.00 | 0.00 | 92 | 1009.9 |
| 20260508081538 | 3 | 94 | 0.0 | 0.0 | 0.00 | 0.00 | 0.00 | 92 | 1009.7 |
| 20260508080031 | 3 | 95 | 0.0 | 0.0 | 0.00 | 0.00 | 0.00 | 92 | 1009.8 |
| 20260508074522 | 3 | 94 | 0.0 | 0.0 | 0.00 | 0.00 | 0.00 | 92 | 1009.6 |
| 20260508073018 | 3 | 95 | 0.0 | 0.0 | 0.00 | 0.00 | 0.00 | 92 | 1009.7 |
| 20260508071517 | 3 | 94 | 0.0 | 0.0 | 0.00 | 0.00 | 0.00 | 92 | 1009.9 |
| 20260508070016 | 3 | 94 | 0.0 | 0.0 | 0.00 | 0.00 | 0.00 | 92 | 1009.9 |
| 20260508064614 | 3 | 94 | 0.0 | 0.0 | 0.00 | 0.00 | 0.00 | 91 | 1009.9 |
| 20260508063016 | 3 | 95 | 0.0 | 0.0 | 0.00 | 0.00 | 0.00 | 91 | 1010.2 |
| 20260508061510 | 4 | 95 | 0.0 | 0.0 | 0.00 | 0.00 | 0.00 | 91 | 1010.3 |
| 20260508060009 | 4 | 95 | 0.0 | 0.0 | 0.00 | 0.00 | 0.00 | 91 | 1010.3 |
| 20260508054625 | 3 | 94 | 0.0 | 0.0 | 0.00 | 0.00 | 0.00 | 90 | 1010.2 |
| 20260508053108 | 4 | 94 | 0.0 | 0.0 | 0.00 | 0.00 | 0.00 | 90 | 1010.1 |
| 20260508051559 | 4 | 94 | 0.0 | 0.0 | 0.00 | 0.00 | 0.00 | 90 | 1010.1 |
| 20260508050056 | 4 | 95 | 0.0 | 0.0 | 0.00 | 0.00 | 0.00 | 90 | 1010.2 |
| 20260508044551 | 4 | 94 | 0.0 | 0.0 | 0.00 | 0.00 | 0.00 | 89 | 1010.1 |
| 20260508043055 | 5 | 94 | 0.0 | 0.0 | 0.00 | 0.00 | 0.00 | 89 | 1010.1 |
| 20260508041549 | 4 | 94 | 0.0 | 0.0 | 0.00 | 0.00 | 0.00 | 89 | 1010.0 |
| 20260508040054 | 5 | 95 | 0.0 | 0.0 | 0.00 | 0.00 | 0.00 | 88 | 1010.1 |
| 20260508034531 | 5 | 95 | 0.0 | 0.0 | 0.00 | 0.00 | 0.00 | 88 | 1010.1 |
| 20260508033032 | 5 | 94 | 0.0 | 0.0 | 0.00 | 0.00 | 0.00 | 87 | 1010.2 |
| 20260508031519 | 5 | 95 | 0.0 | 0.0 | 0.00 | 0.00 | 0.00 | 86 | 1010.1 |
| 20260508030018 | 6 | 95 | 0.0 | 0.0 | 0.00 | 0.00 | 0.00 | 85 | 1010.1 |
| 20260508024520 | 6 | 95 | 0.0 | 0.0 | 0.00 | 0.00 | 0.00 | 83 | 1010.0 |
| 20260508023015 | 6 | 55 | 0.0 | 0.0 | 0.00 | 0.00 | 0.00 | 82 | 1010.0 |
| 20260508021515 | 6 | 56 | 0.0 | 0.0 | 0.00 | 0.00 | 0.00 | 80 | 1010.2 |
| 20260508020016 | 6 | 55 | 0.0 | 0.0 | 0.00 | 0.00 | 0.00 | 78 | 1010.0 |
| 20260508014515 | 7 | 53 | 0.0 | 0.0 | 0.00 | 0.00 | 0.00 | 77 | 1009.8 |
| 20260508013014 | 7 | 54 | 0.0 | 0.0 | 0.00 | 0.00 | 0.00 | 72 | 1009.8 |
| 20260508011504 | 7 | 53 | 0.0 | 0.0 | 0.00 | 0.00 | 0.00 | 71 | 1009.7 |
| 20260508010004 | 8 | 54 | 0.0 | 0.0 | 0.00 | 0.00 | 0.00 | 69 | 1009.5 |
| 20260508004502 | 9 | 54 | 0.0 | 0.0 | 0.00 | 0.00 | 0.00 | 66 | 1009.4 |
| 20260508003101 | 10 | 54 | 0.0 | 0.0 | 0.00 | 0.00 | 0.00 | 61 | 1009.2 |
| 20260508001601 | 11 | 53 | 0.0 | 0.0 | 0.00 | 0.00 | 0.00 | 58 | 1009.1 |
| 20260508000120 | 11 | 54 | 0.0 | 0.0 | 0.00 | 0.00 | 0.00 | 54 | 1009.0 |
| 20260507234558 | 12 | 54 | 0.0 | 0.0 | 0.00 | 0.00 | 0.00 | 51 | 1008.9 |
| 20260507233058 | 12 | 54 | 0.0 | 0.0 | 0.00 | 0.00 | 0.00 | 49 | 1008.7 |
| 20260507231545 | 13 | 41 | 0.0 | 1.6 | 0.00 | 0.00 | 0.00 | 54 | 1009.0 |
| 20260507230040 | 13 | 11 | 0.0 | 3.2 | 0.00 | 0.00 | 0.00 | 47 | 1008.8 |
| 20260507224529 | 14 | 20 | 0.0 | 1.6 | 0.00 | 0.00 | 0.00 | 43 | 1008.8 |
| 20260507223029 | 15 | 295 | 0.0 | 6.4 | 0.00 | 0.00 | 0.00 | 46 | 1008.7 |
| 20260507221527 | 15 | 314 | 0.0 | 6.4 | 0.00 | 0.00 | 0.00 | 44 | 1008.9 |
| 20260507220026 | 16 | 61 | 0.0 | 4.8 | 0.00 | 0.00 | 0.00 | 42 | 1008.9 |
| 20260507214528 | 15 | 105 | 0.0 | 4.8 | 0.00 | 0.00 | 0.00 | 44 | 1008.9 |
| 20260507213024 | 16 | 201 | 0.0 | 3.2 | 0.00 | 0.00 | 0.00 | 46 | 1008.9 |
| 20260507211532 | 16 | 194 | 0.0 | 8.0 | 0.00 | 0.00 | 0.00 | 42 | 1008.7 |
| 20260507210023 | 17 | 307 | 0.0 | 1.6 | 0.00 | 0.00 | 0.00 | 42 | 1008.7 |
| 20260507204512 | 17 | 278 | 0.0 | 4.8 | 0.00 | 0.00 | 0.00 | 43 | 1008.7 |
| 20260507203013 | 17 | 110 | 0.0 | 12.9 | 0.00 | 0.00 | 0.00 | 42 | 1008.5 |
| 20260507201515 | 17 | 255 | 0.0 | 3.2 | 0.00 | 0.00 | 0.00 | 44 | 1008.6 |